sensor_id;sensor_type;location;lat;lon;timestamp;pressure;altitude;pressure_sealevel;temperature;humidity
80644;BME280;70010;60.224;24.712;2023-08-21T00:00:47;101744.78;;;9.25;67.94
80644;BME280;70010;60.224;24.712;2023-08-21T00:03:12;101745.91;;;9.23;67.27
80644;BME280;70010;60.224;24.712;2023-08-21T00:05:37;101744.30;;;9.43;66.72
80644;BME280;70010;60.224;24.712;2023-08-21T00:08:03;101742.26;;;9.95;66.13
80644;BME280;70010;60.224;24.712;2023-08-21T00:10:30;101742.96;;;9.63;67.42
80644;BME280;70010;60.224;24.712;2023-08-21T00:12:54;101739.70;;;9.27;67.34
80644;BME280;70010;60.224;24.712;2023-08-21T00:15:20;101733.90;;;9.49;66.75
80644;BME280;70010;60.224;24.712;2023-08-21T00:17:45;101735.69;;;9.81;65.88
80644;BME280;70010;60.224;24.712;2023-08-21T00:20:11;101734.85;;;9.35;67.55
80644;BME280;70010;60.224;24.712;2023-08-21T00:22:36;101735.60;;;9.37;67.00
80644;BME280;70010;60.224;24.712;2023-08-21T00:25:01;101731.79;;;9.56;66.25
80644;BME280;70010;60.224;24.712;2023-08-21T00:27:27;101730.00;;;9.14;67.46
80644;BME280;70010;60.224;24.712;2023-08-21T00:29:53;101728.25;;;9.15;68.24
80644;BME280;70010;60.224;24.712;2023-08-21T00:32:18;101727.92;;;9.22;67.50
80644;BME280;70010;60.224;24.712;2023-08-21T00:34:43;101725.76;;;9.29;67.09
80644;BME280;70010;60.224;24.712;2023-08-21T00:37:10;101721.79;;;9.43;66.89
80644;BME280;70010;60.224;24.712;2023-08-21T00:39:34;101722.12;;;9.42;67.54
80644;BME280;70010;60.224;24.712;2023-08-21T00:42:00;101720.08;;;9.38;67.02
80644;BME280;70010;60.224;24.712;2023-08-21T00:44:25;101718.38;;;9.45;66.68
80644;BME280;70010;60.224;24.712;2023-08-21T00:46:51;101715.75;;;9.45;66.83
80644;BME280;70010;60.224;24.712;2023-08-21T00:49:16;101717.08;;;9.31;67.17
80644;BME280;70010;60.224;24.712;2023-08-21T00:51:41;101712.79;;;9.03;67.99
80644;BME280;70010;60.224;24.712;2023-08-21T00:54:07;101711.68;;;9.25;68.20
80644;BME280;70010;60.224;24.712;2023-08-21T00:56:32;101709.33;;;9.30;67.46
80644;BME280;70010;60.224;24.712;2023-08-21T00:58:57;101706.53;;;9.57;67.39
80644;BME280;70010;60.224;24.712;2023-08-21T01:01:24;101699.00;;;10.35;64.63
80644;BME280;70010;60.224;24.712;2023-08-21T01:03:48;101703.99;;;9.51;66.71
80644;BME280;70010;60.224;24.712;2023-08-21T01:06:13;101701.91;;;9.56;66.86
80644;BME280;70010;60.224;24.712;2023-08-21T01:08:43;101700.21;;;9.47;66.36
80644;BME280;70010;60.224;24.712;2023-08-21T01:11:09;101702.16;;;9.70;66.37
80644;BME280;70010;60.224;24.712;2023-08-21T01:13:39;101702.29;;;9.44;67.18
80644;BME280;70010;60.224;24.712;2023-08-21T01:15:56;101703.80;;;9.54;66.81
80644;BME280;70010;60.224;24.712;2023-08-21T01:18:20;101705.00;;;9.47;67.92
80644;BME280;70010;60.224;24.712;2023-08-21T01:20:46;101701.67;;;9.62;67.05
80644;BME280;70010;60.224;24.712;2023-08-21T01:23:26;101700.39;;;9.48;67.29
80644;BME280;70010;60.224;24.712;2023-08-21T01:25:36;101695.58;;;9.22;68.02
80644;BME280;70010;60.224;24.712;2023-08-21T01:28:01;101694.22;;;9.28;68.67
80644;BME280;70010;60.224;24.712;2023-08-21T01:30:28;101696.18;;;9.69;67.00
80644;BME280;70010;60.224;24.712;2023-08-21T01:32:58;101691.92;;;9.65;66.41
80644;BME280;70010;60.224;24.712;2023-08-21T01:35:18;101687.49;;;10.05;66.28
80644;BME280;70010;60.224;24.712;2023-08-21T01:37:43;101684.06;;;10.18;65.29
80644;BME280;70010;60.224;24.712;2023-08-21T01:40:09;101680.93;;;11.61;59.75
80644;BME280;70010;60.224;24.712;2023-08-21T01:42:33;101679.04;;;10.20;64.31
80644;BME280;70010;60.224;24.712;2023-08-21T01:44:59;101675.27;;;9.67;65.98
80644;BME280;70010;60.224;24.712;2023-08-21T01:47:24;101671.92;;;10.37;65.02
80644;BME280;70010;60.224;24.712;2023-08-21T01:49:49;101674.23;;;9.94;66.75
80644;BME280;70010;60.224;24.712;2023-08-21T01:52:14;101666.54;;;10.41;65.58
80644;BME280;70010;60.224;24.712;2023-08-21T01:54:40;101665.73;;;9.96;66.98
80644;BME280;70010;60.224;24.712;2023-08-21T01:57:05;101663.17;;;10.06;66.06
80644;BME280;70010;60.224;24.712;2023-08-21T01:59:30;101663.25;;;9.91;67.47
80644;BME280;70010;60.224;24.712;2023-08-21T02:01:55;101665.82;;;9.72;68.00
80644;BME280;70010;60.224;24.712;2023-08-21T02:04:21;101662.91;;;9.97;67.41
80644;BME280;70010;60.224;24.712;2023-08-21T02:06:46;101664.49;;;9.51;67.77
80644;BME280;70010;60.224;24.712;2023-08-21T02:09:11;101662.60;;;9.75;67.94
80644;BME280;70010;60.224;24.712;2023-08-21T02:11:36;101661.03;;;9.62;68.15
80644;BME280;70010;60.224;24.712;2023-08-21T02:14:02;101658.41;;;9.87;67.74
80644;BME280;70010;60.224;24.712;2023-08-21T02:16:27;101656.26;;;9.91;67.19
80644;BME280;70010;60.224;24.712;2023-08-21T02:18:52;101653.36;;;9.84;66.64
80644;BME280;70010;60.224;24.712;2023-08-21T02:21:18;101651.82;;;10.14;66.55
80644;BME280;70010;60.224;24.712;2023-08-21T02:23:43;101646.95;;;10.19;66.41
80644;BME280;70010;60.224;24.712;2023-08-21T02:26:08;101648.15;;;10.12;67.35
80644;BME280;70010;60.224;24.712;2023-08-21T02:28:34;101647.92;;;9.71;68.52
80644;BME280;70010;60.224;24.712;2023-08-21T02:30:59;101647.86;;;9.49;69.44
80644;BME280;70010;60.224;24.712;2023-08-21T02:33:24;101647.88;;;9.48;71.21
80644;BME280;70010;60.224;24.712;2023-08-21T02:35:49;101638.54;;;9.76;68.95
80644;BME280;70010;60.224;24.712;2023-08-21T02:38:15;101631.57;;;10.40;67.04
80644;BME280;70010;60.224;24.712;2023-08-21T02:40:40;101629.05;;;10.60;66.62
80644;BME280;70010;60.224;24.712;2023-08-21T02:43:06;101625.05;;;10.02;66.66
80644;BME280;70010;60.224;24.712;2023-08-21T02:45:31;101627.60;;;9.90;69.08
80644;BME280;70010;60.224;24.712;2023-08-21T02:47:56;101627.93;;;9.40;69.79
80644;BME280;70010;60.224;24.712;2023-08-21T02:50:22;101622.73;;;9.72;68.93
80644;BME280;70010;60.224;24.712;2023-08-21T02:52:47;101619.66;;;10.88;66.23
80644;BME280;70010;60.224;24.712;2023-08-21T02:55:13;101620.98;;;10.21;67.18
80644;BME280;70010;60.224;24.712;2023-08-21T02:57:38;101619.37;;;9.73;68.45
80644;BME280;70010;60.224;24.712;2023-08-21T03:00:04;101616.28;;;9.78;68.54
80644;BME280;70010;60.224;24.712;2023-08-21T03:02:28;101609.53;;;10.33;65.89
80644;BME280;70010;60.224;24.712;2023-08-21T03:04:54;101608.26;;;10.32;67.25
80644;BME280;70010;60.224;24.712;2023-08-21T03:07:20;101608.11;;;10.31;66.81
80644;BME280;70010;60.224;24.712;2023-08-21T03:09:46;101611.93;;;9.87;68.52
80644;BME280;70010;60.224;24.712;2023-08-21T03:12:10;101609.68;;;9.82;67.54
80644;BME280;70010;60.224;24.712;2023-08-21T03:14:36;101606.37;;;10.02;67.62
80644;BME280;70010;60.224;24.712;2023-08-21T03:17:01;101605.70;;;10.10;66.55
80644;BME280;70010;60.224;24.712;2023-08-21T03:19:26;101603.24;;;9.96;67.64
80644;BME280;70010;60.224;24.712;2023-08-21T03:21:51;101604.07;;;9.94;67.94
80644;BME280;70010;60.224;24.712;2023-08-21T03:24:17;101604.44;;;9.78;68.40
80644;BME280;70010;60.224;24.712;2023-08-21T03:26:42;101597.88;;;9.96;67.94
80644;BME280;70010;60.224;24.712;2023-08-21T03:29:07;101598.87;;;10.39;67.39
80644;BME280;70010;60.224;24.712;2023-08-21T03:31:33;101599.68;;;10.14;67.29
80644;BME280;70010;60.224;24.712;2023-08-21T03:33:58;101599.82;;;10.02;67.00
80644;BME280;70010;60.224;24.712;2023-08-21T03:36:23;101600.97;;;10.29;67.16
80644;BME280;70010;60.224;24.712;2023-08-21T03:38:48;101596.17;;;10.57;66.52
80644;BME280;70010;60.224;24.712;2023-08-21T03:41:14;101597.07;;;10.14;67.60
80644;BME280;70010;60.224;24.712;2023-08-21T03:43:39;101595.38;;;10.15;66.98
80644;BME280;70010;60.224;24.712;2023-08-21T03:46:04;101590.54;;;9.82;67.98
80644;BME280;70010;60.224;24.712;2023-08-21T03:48:29;101584.47;;;10.29;67.08
80644;BME280;70010;60.224;24.712;2023-08-21T03:50:55;101581.67;;;10.47;66.60
80644;BME280;70010;60.224;24.712;2023-08-21T03:53:20;101580.24;;;10.53;65.88
80644;BME280;70010;60.224;24.712;2023-08-21T03:55:45;101574.77;;;10.38;66.88
80644;BME280;70010;60.224;24.712;2023-08-21T03:58:10;101576.50;;;10.17;68.19
80644;BME280;70010;60.224;24.712;2023-08-21T04:00:36;101570.00;;;10.64;67.21
80644;BME280;70010;60.224;24.712;2023-08-21T04:03:01;101570.07;;;10.75;66.12
80644;BME280;70010;60.224;24.712;2023-08-21T04:05:26;101566.83;;;10.06;68.13
80644;BME280;70010;60.224;24.712;2023-08-21T04:07:51;101567.89;;;10.42;67.86
80644;BME280;70010;60.224;24.712;2023-08-21T04:10:17;101564.51;;;10.40;68.18
80644;BME280;70010;60.224;24.712;2023-08-21T04:12:42;101564.39;;;10.17;67.87
80644;BME280;70010;60.224;24.712;2023-08-21T04:15:08;101562.35;;;10.10;69.11
80644;BME280;70010;60.224;24.712;2023-08-21T04:17:32;101559.16;;;10.31;67.49
80644;BME280;70010;60.224;24.712;2023-08-21T04:19:58;101557.47;;;10.36;67.26
80644;BME280;70010;60.224;24.712;2023-08-21T04:22:23;101551.39;;;10.85;66.70
80644;BME280;70010;60.224;24.712;2023-08-21T04:24:49;101548.68;;;10.56;67.40
80644;BME280;70010;60.224;24.712;2023-08-21T04:27:14;101545.94;;;10.51;67.89
80644;BME280;70010;60.224;24.712;2023-08-21T04:29:40;101542.75;;;10.70;67.67
80644;BME280;70010;60.224;24.712;2023-08-21T04:32:05;101538.72;;;10.99;66.95
80644;BME280;70010;60.224;24.712;2023-08-21T04:34:32;101535.86;;;10.57;66.89
80644;BME280;70010;60.224;24.712;2023-08-21T04:36:55;101531.95;;;10.50;67.90
80644;BME280;70010;60.224;24.712;2023-08-21T04:39:21;101533.67;;;10.59;68.10
80644;BME280;70010;60.224;24.712;2023-08-21T04:41:46;101530.58;;;10.32;69.98
80644;BME280;70010;60.224;24.712;2023-08-21T04:44:12;101530.30;;;11.14;67.14
80644;BME280;70010;60.224;24.712;2023-08-21T04:46:37;101524.13;;;10.78;66.66
80644;BME280;70010;60.224;24.712;2023-08-21T04:49:02;101525.21;;;10.77;67.64
80644;BME280;70010;60.224;24.712;2023-08-21T04:51:27;101524.65;;;10.86;66.52
80644;BME280;70010;60.224;24.712;2023-08-21T04:53:53;101520.67;;;11.65;64.42
80644;BME280;70010;60.224;24.712;2023-08-21T04:56:18;101520.77;;;11.15;65.85
80644;BME280;70010;60.224;24.712;2023-08-21T04:58:44;101519.29;;;11.16;65.62
80644;BME280;70010;60.224;24.712;2023-08-21T05:01:09;101518.81;;;11.01;66.51
80644;BME280;70010;60.224;24.712;2023-08-21T05:03:35;101518.32;;;11.04;66.22
80644;BME280;70010;60.224;24.712;2023-08-21T05:06:00;101519.41;;;10.86;66.89
80644;BME280;70010;60.224;24.712;2023-08-21T05:08:26;101521.51;;;10.66;67.29
80644;BME280;70010;60.224;24.712;2023-08-21T05:10:54;101519.61;;;11.05;66.10
80644;BME280;70010;60.224;24.712;2023-08-21T05:13:16;101520.85;;;11.17;66.34
80644;BME280;70010;60.224;24.712;2023-08-21T05:15:41;101518.46;;;11.29;66.41
80644;BME280;70010;60.224;24.712;2023-08-21T05:18:07;101517.24;;;11.61;65.38
80644;BME280;70010;60.224;24.712;2023-08-21T05:20:32;101516.36;;;11.28;65.80
80644;BME280;70010;60.224;24.712;2023-08-21T05:22:58;101520.96;;;11.78;64.08
80644;BME280;70010;60.224;24.712;2023-08-21T05:25:23;101514.10;;;11.69;65.01
80644;BME280;70010;60.224;24.712;2023-08-21T05:27:49;101517.22;;;11.62;64.66
80644;BME280;70010;60.224;24.712;2023-08-21T05:30:15;101512.14;;;12.57;62.43
80644;BME280;70010;60.224;24.712;2023-08-21T05:32:41;101508.65;;;12.09;63.73
80644;BME280;70010;60.224;24.712;2023-08-21T05:35:06;101507.32;;;11.94;64.83
80644;BME280;70010;60.224;24.712;2023-08-21T05:37:31;101506.87;;;12.40;63.25
80644;BME280;70010;60.224;24.712;2023-08-21T05:39:56;101506.85;;;11.05;66.64
80644;BME280;70010;60.224;24.712;2023-08-21T05:42:22;101506.56;;;11.04;67.92
80644;BME280;70010;60.224;24.712;2023-08-21T05:44:47;101507.47;;;11.41;67.26
80644;BME280;70010;60.224;24.712;2023-08-21T05:47:12;101503.60;;;11.79;65.82
80644;BME280;70010;60.224;24.712;2023-08-21T05:49:38;101502.28;;;11.97;65.02
80644;BME280;70010;60.224;24.712;2023-08-21T05:52:03;101502.75;;;11.98;65.29
80644;BME280;70010;60.224;24.712;2023-08-21T05:54:28;101503.47;;;12.23;63.40
80644;BME280;70010;60.224;24.712;2023-08-21T05:56:53;101501.64;;;11.70;65.48
80644;BME280;70010;60.224;24.712;2023-08-21T05:59:27;101500.30;;;11.77;65.08
80644;BME280;70010;60.224;24.712;2023-08-21T06:01:44;101498.12;;;11.78;65.91
80644;BME280;70010;60.224;24.712;2023-08-21T06:04:10;101499.87;;;11.86;65.28
80644;BME280;70010;60.224;24.712;2023-08-21T06:06:35;101501.57;;;11.85;66.27
80644;BME280;70010;60.224;24.712;2023-08-21T06:09:00;101501.58;;;11.33;68.03
80644;BME280;70010;60.224;24.712;2023-08-21T06:11:25;101501.03;;;11.71;66.91
80644;BME280;70010;60.224;24.712;2023-08-21T06:13:51;101502.23;;;12.31;65.00
80644;BME280;70010;60.224;24.712;2023-08-21T06:16:17;101500.66;;;12.22;65.31
80644;BME280;70010;60.224;24.712;2023-08-21T06:18:42;101498.04;;;11.98;64.69
80644;BME280;70010;60.224;24.712;2023-08-21T06:21:07;101495.44;;;11.70;67.20
80644;BME280;70010;60.224;24.712;2023-08-21T06:23:33;101495.73;;;12.48;65.30
80644;BME280;70010;60.224;24.712;2023-08-21T06:25:58;101494.73;;;12.34;64.88
80644;BME280;70010;60.224;24.712;2023-08-21T06:28:23;101488.87;;;13.10;62.64
80644;BME280;70010;60.224;24.712;2023-08-21T06:30:55;101492.15;;;12.18;65.68
80644;BME280;70010;60.224;24.712;2023-08-21T06:33:13;101489.71;;;12.11;66.79
80644;BME280;70010;60.224;24.712;2023-08-21T06:35:39;101480.65;;;13.22;62.33
80644;BME280;70010;60.224;24.712;2023-08-21T06:38:04;101479.57;;;13.13;62.77
80644;BME280;70010;60.224;24.712;2023-08-21T06:40:29;101481.26;;;12.72;64.42
80644;BME280;70010;60.224;24.712;2023-08-21T06:42:54;101470.70;;;15.84;55.74
80644;BME280;70010;60.224;24.712;2023-08-21T06:45:20;101473.12;;;14.88;56.98
80644;BME280;70010;60.224;24.712;2023-08-21T06:47:45;101474.50;;;13.87;60.06
80644;BME280;70010;60.224;24.712;2023-08-21T06:50:10;101472.40;;;13.20;63.19
80644;BME280;70010;60.224;24.712;2023-08-21T06:52:36;101466.41;;;15.61;56.10
80644;BME280;70010;60.224;24.712;2023-08-21T06:55:01;101465.35;;;15.13;56.43
80644;BME280;70010;60.224;24.712;2023-08-21T06:57:26;101465.87;;;13.96;59.91
80644;BME280;70010;60.224;24.712;2023-08-21T06:59:52;101468.37;;;13.02;62.70
80644;BME280;70010;60.224;24.712;2023-08-21T07:02:17;101462.77;;;13.82;61.93
80644;BME280;70010;60.224;24.712;2023-08-21T07:04:42;101462.70;;;14.05;60.50
80644;BME280;70010;60.224;24.712;2023-08-21T07:07:08;101461.11;;;16.69;53.81
80644;BME280;70010;60.224;24.712;2023-08-21T07:09:34;101459.65;;;16.07;54.31
80644;BME280;70010;60.224;24.712;2023-08-21T07:11:59;101457.60;;;15.12;56.78
80644;BME280;70010;60.224;24.712;2023-08-21T07:14:24;101452.55;;;17.66;50.58
80644;BME280;70010;60.224;24.712;2023-08-21T07:16:49;101457.20;;;14.50;58.47
80644;BME280;70010;60.224;24.712;2023-08-21T07:19:15;101454.23;;;15.09;58.60
80644;BME280;70010;60.224;24.712;2023-08-21T07:21:40;101453.58;;;14.45;60.32
80644;BME280;70010;60.224;24.712;2023-08-21T07:24:05;101451.90;;;14.80;59.70
80644;BME280;70010;60.224;24.712;2023-08-21T07:26:31;101453.10;;;14.97;58.71
80644;BME280;70010;60.224;24.712;2023-08-21T07:28:56;101446.43;;;18.02;50.98
80644;BME280;70010;60.224;24.712;2023-08-21T07:31:22;101443.61;;;18.38;49.58
80644;BME280;70010;60.224;24.712;2023-08-21T07:33:47;101447.84;;;17.10;51.82
80644;BME280;70010;60.224;24.712;2023-08-21T07:36:12;101447.29;;;15.55;55.83
80644;BME280;70010;60.224;24.712;2023-08-21T07:38:37;101446.58;;;16.72;53.52
80644;BME280;70010;60.224;24.712;2023-08-21T07:41:04;101443.57;;;14.70;58.01
80644;BME280;70010;60.224;24.712;2023-08-21T07:43:28;101439.19;;;15.34;57.47
80644;BME280;70010;60.224;24.712;2023-08-21T07:45:53;101436.35;;;16.79;53.54
80644;BME280;70010;60.224;24.712;2023-08-21T07:48:18;101433.10;;;17.03;53.14
80644;BME280;70010;60.224;24.712;2023-08-21T07:50:50;101428.03;;;17.80;50.77
80644;BME280;70010;60.224;24.712;2023-08-21T07:53:09;101425.05;;;19.88;46.44
80644;BME280;70010;60.224;24.712;2023-08-21T07:55:34;101425.73;;;19.74;46.61
80644;BME280;70010;60.224;24.712;2023-08-21T07:57:59;101423.14;;;19.93;46.25
80644;BME280;70010;60.224;24.712;2023-08-21T08:00:25;101426.22;;;15.13;57.37
80644;BME280;70010;60.224;24.712;2023-08-21T08:02:50;101424.36;;;17.16;52.91
80644;BME280;70010;60.224;24.712;2023-08-21T08:05:15;101419.02;;;19.81;46.77
80644;BME280;70010;60.224;24.712;2023-08-21T08:07:40;101420.67;;;18.98;48.10
80644;BME280;70010;60.224;24.712;2023-08-21T08:10:06;101420.79;;;19.68;46.89
80644;BME280;70010;60.224;24.712;2023-08-21T08:12:31;101419.61;;;20.02;46.41
80644;BME280;70010;60.224;24.712;2023-08-21T08:14:56;101422.60;;;18.56;48.76
80644;BME280;70010;60.224;24.712;2023-08-21T08:17:22;101422.58;;;19.57;47.09
80644;BME280;70010;60.224;24.712;2023-08-21T08:19:47;101424.85;;;20.92;44.84
80644;BME280;70010;60.224;24.712;2023-08-21T08:22:12;101420.43;;;20.29;44.85
80644;BME280;70010;60.224;24.712;2023-08-21T08:24:37;101418.15;;;18.46;48.79
80644;BME280;70010;60.224;24.712;2023-08-21T08:27:03;101414.41;;;20.12;45.82
80644;BME280;70010;60.224;24.712;2023-08-21T08:29:29;101414.97;;;21.27;43.96
80644;BME280;70010;60.224;24.712;2023-08-21T08:31:54;101410.52;;;21.17;43.70
80644;BME280;70010;60.224;24.712;2023-08-21T08:34:20;101409.90;;;21.27;43.40
80644;BME280;70010;60.224;24.712;2023-08-21T08:36:45;101403.11;;;19.96;46.71
80644;BME280;70010;60.224;24.712;2023-08-21T08:39:10;101400.34;;;22.16;42.15
80644;BME280;70010;60.224;24.712;2023-08-21T08:41:43;101398.74;;;22.42;41.71
80644;BME280;70010;60.224;24.712;2023-08-21T08:44:01;101404.97;;;21.00;44.06
80644;BME280;70010;60.224;24.712;2023-08-21T08:46:28;101397.72;;;23.26;40.37
80644;BME280;70010;60.224;24.712;2023-08-21T08:48:51;101400.03;;;19.99;45.37
80644;BME280;70010;60.224;24.712;2023-08-21T08:51:16;101399.62;;;20.19;44.52
80644;BME280;70010;60.224;24.712;2023-08-21T08:53:42;101391.35;;;23.38;40.67
80644;BME280;70010;60.224;24.712;2023-08-21T08:56:06;101390.06;;;21.98;42.29
80644;BME280;70010;60.224;24.712;2023-08-21T08:58:31;101398.36;;;17.52;50.78
80644;BME280;70010;60.224;24.712;2023-08-21T09:00:57;101392.00;;;20.38;46.04
80644;BME280;70010;60.224;24.712;2023-08-21T09:03:22;101388.30;;;21.56;43.41
80644;BME280;70010;60.224;24.712;2023-08-21T09:05:47;101386.45;;;19.47;47.10
80644;BME280;70010;60.224;24.712;2023-08-21T09:08:13;101385.20;;;18.88;48.71
80644;BME280;70010;60.224;24.712;2023-08-21T09:10:39;101380.40;;;19.36;47.87
80644;BME280;70010;60.224;24.712;2023-08-21T09:13:08;101377.90;;;20.01;46.21
80644;BME280;70010;60.224;24.712;2023-08-21T09:15:28;101372.47;;;22.63;41.52
80644;BME280;70010;60.224;24.712;2023-08-21T09:17:54;101376.47;;;19.08;46.86
80644;BME280;70010;60.224;24.712;2023-08-21T09:20:19;101365.93;;;22.20;42.08
80644;BME280;70010;60.224;24.712;2023-08-21T09:22:52;101370.12;;;20.96;43.51
80644;BME280;70010;60.224;24.712;2023-08-21T09:25:10;101359.84;;;22.10;42.33
80644;BME280;70010;60.224;24.712;2023-08-21T09:27:35;101360.00;;;22.56;40.93
80644;BME280;70010;60.224;24.712;2023-08-21T09:30:00;101359.31;;;21.57;42.27
80644;BME280;70010;60.224;24.712;2023-08-21T09:32:25;101354.13;;;21.65;42.47
80644;BME280;70010;60.224;24.712;2023-08-21T09:34:50;101352.65;;;21.46;43.26
80644;BME280;70010;60.224;24.712;2023-08-21T09:37:17;101350.49;;;20.81;44.96
80644;BME280;70010;60.224;24.712;2023-08-21T09:39:40;101344.58;;;21.61;43.19
80644;BME280;70010;60.224;24.712;2023-08-21T09:42:06;101340.25;;;19.72;46.80
80644;BME280;70010;60.224;24.712;2023-08-21T09:44:36;101340.40;;;19.70;48.01
80644;BME280;70010;60.224;24.712;2023-08-21T09:46:56;101329.96;;;22.42;42.54
80644;BME280;70010;60.224;24.712;2023-08-21T09:49:22;101326.77;;;23.87;39.99
80644;BME280;70010;60.224;24.712;2023-08-21T09:51:47;101325.24;;;25.27;37.90
80644;BME280;70010;60.224;24.712;2023-08-21T09:54:12;101328.78;;;23.15;40.57
80644;BME280;70010;60.224;24.712;2023-08-21T09:56:38;101322.80;;;22.77;40.23
80644;BME280;70010;60.224;24.712;2023-08-21T09:59:04;101320.73;;;25.80;37.22
80644;BME280;70010;60.224;24.712;2023-08-21T10:01:31;101319.91;;;23.57;38.84
80644;BME280;70010;60.224;24.712;2023-08-21T10:03:55;101314.87;;;25.34;36.04
80644;BME280;70010;60.224;24.712;2023-08-21T10:06:20;101309.85;;;25.96;35.35
80644;BME280;70010;60.224;24.712;2023-08-21T10:08:47;101310.08;;;25.57;35.59
80644;BME280;70010;60.224;24.712;2023-08-21T10:11:11;101309.06;;;25.46;37.05
80644;BME280;70010;60.224;24.712;2023-08-21T10:13:37;101303.02;;;25.62;35.83
80644;BME280;70010;60.224;24.712;2023-08-21T10:16:01;101307.87;;;22.62;38.85
80644;BME280;70010;60.224;24.712;2023-08-21T10:18:31;101316.87;;;20.62;43.95
80644;BME280;70010;60.224;24.712;2023-08-21T10:20:52;101315.49;;;21.37;43.14
80644;BME280;70010;60.224;24.712;2023-08-21T10:23:25;101307.41;;;23.34;39.95
80644;BME280;70010;60.224;24.712;2023-08-21T10:25:42;101313.90;;;21.06;43.35
80644;BME280;70010;60.224;24.712;2023-08-21T10:28:07;101312.62;;;21.24;44.08
80644;BME280;70010;60.224;24.712;2023-08-21T10:30:32;101302.96;;;23.20;40.21
80644;BME280;70010;60.224;24.712;2023-08-21T10:32:59;101301.12;;;21.48;42.85
80644;BME280;70010;60.224;24.712;2023-08-21T10:35:24;101302.88;;;22.60;40.93
80644;BME280;70010;60.224;24.712;2023-08-21T10:40:22;101293.11;;;23.79;38.66
80644;BME280;70010;60.224;24.712;2023-08-21T10:42:39;101298.90;;;20.49;45.31
80644;BME280;70010;60.224;24.712;2023-08-21T10:45:10;101295.45;;;21.16;44.00
80644;BME280;70010;60.224;24.712;2023-08-21T10:47:31;101296.13;;;21.19;44.34
80644;BME280;70010;60.224;24.712;2023-08-21T10:49:55;101296.35;;;20.77;45.44
80644;BME280;70010;60.224;24.712;2023-08-21T10:52:23;101295.13;;;20.29;45.63
80644;BME280;70010;60.224;24.712;2023-08-21T10:54:47;101290.95;;;21.42;44.71
80644;BME280;70010;60.224;24.712;2023-08-21T10:57:11;101281.20;;;22.50;41.85
80644;BME280;70010;60.224;24.712;2023-08-21T10:59:36;101276.71;;;24.61;38.91
80644;BME280;70010;60.224;24.712;2023-08-21T11:02:01;101275.59;;;23.31;40.67
80644;BME280;70010;60.224;24.712;2023-08-21T11:04:26;101277.26;;;25.45;37.79
80644;BME280;70010;60.224;24.712;2023-08-21T11:06:51;101275.85;;;22.57;41.85
80644;BME280;70010;60.224;24.712;2023-08-21T11:09:17;101276.06;;;20.79;45.44
80644;BME280;70010;60.224;24.712;2023-08-21T11:11:43;101269.70;;;23.03;41.41
80644;BME280;70010;60.224;24.712;2023-08-21T11:14:07;101267.66;;;24.07;39.59
80644;BME280;70010;60.224;24.712;2023-08-21T11:16:32;101271.77;;;23.24;40.94
80644;BME280;70010;60.224;24.712;2023-08-21T11:18:57;101268.47;;;23.97;40.00
80644;BME280;70010;60.224;24.712;2023-08-21T11:21:23;101267.09;;;24.05;39.53
80644;BME280;70010;60.224;24.712;2023-08-21T11:23:48;101261.16;;;23.94;39.59
80644;BME280;70010;60.224;24.712;2023-08-21T11:26:13;101254.44;;;27.75;34.03
80644;BME280;70010;60.224;24.712;2023-08-21T11:28:38;101256.02;;;23.13;41.21
80644;BME280;70010;60.224;24.712;2023-08-21T11:31:04;101259.54;;;20.74;45.74
80644;BME280;70010;60.224;24.712;2023-08-21T11:33:28;101250.53;;;24.71;38.79
80644;BME280;70010;60.224;24.712;2023-08-21T11:35:54;101249.68;;;22.22;42.00
80644;BME280;70010;60.224;24.712;2023-08-21T11:38:21;101248.65;;;22.06;43.23
80644;BME280;70010;60.224;24.712;2023-08-21T11:40:51;101250.94;;;24.74;38.39
80644;BME280;70010;60.224;24.712;2023-08-21T11:43:11;101249.62;;;21.44;43.72
80644;BME280;70010;60.224;24.712;2023-08-21T11:45:35;101245.95;;;23.99;39.69
80644;BME280;70010;60.224;24.712;2023-08-21T11:48:00;101246.65;;;23.07;40.25
80644;BME280;70010;60.224;24.712;2023-08-21T11:50:25;101247.12;;;22.82;40.46
80644;BME280;70010;60.224;24.712;2023-08-21T11:52:52;101243.28;;;21.30;43.75
80644;BME280;70010;60.224;24.712;2023-08-21T11:55:17;101239.78;;;21.69;42.23
80644;BME280;70010;60.224;24.712;2023-08-21T11:57:46;101237.83;;;23.34;40.10
80644;BME280;70010;60.224;24.712;2023-08-21T12:00:09;101238.99;;;21.42;43.34
80644;BME280;70010;60.224;24.712;2023-08-21T12:02:32;101237.50;;;21.99;42.90
80644;BME280;70010;60.224;24.712;2023-08-21T12:05:01;101237.21;;;19.36;48.37
80644;BME280;70010;60.224;24.712;2023-08-21T12:07:22;101231.36;;;22.49;41.51
80644;BME280;70010;60.224;24.712;2023-08-21T12:09:49;101230.26;;;22.86;40.66
80644;BME280;70010;60.224;24.712;2023-08-21T12:12:13;101231.52;;;20.99;43.67
80644;BME280;70010;60.224;24.712;2023-08-21T12:14:38;101233.74;;;19.36;48.43
80644;BME280;70010;60.224;24.712;2023-08-21T12:17:04;101233.68;;;21.21;44.76
80644;BME280;70010;60.224;24.712;2023-08-21T12:19:29;101225.87;;;23.94;39.87
80644;BME280;70010;60.224;24.712;2023-08-21T12:21:54;101225.11;;;24.12;38.75
80644;BME280;70010;60.224;24.712;2023-08-21T12:24:19;101225.30;;;23.38;40.24
80644;BME280;70010;60.224;24.712;2023-08-21T12:26:44;101223.49;;;24.30;38.77
80644;BME280;70010;60.224;24.712;2023-08-21T12:29:09;101222.83;;;21.47;43.44
80644;BME280;70010;60.224;24.712;2023-08-21T12:31:35;101218.96;;;22.70;41.21
80644;BME280;70010;60.224;24.712;2023-08-21T12:34:00;101219.12;;;22.28;42.97